createdAt,value
2018-04-13T00:01:52.579Z,16.70
2018-04-13T00:04:25.956Z,16.70
2018-04-13T00:06:58.600Z,16.70
2018-04-13T00:09:31.205Z,16.70
2018-04-13T00:12:03.852Z,16.70
2018-04-13T00:14:36.456Z,16.70
2018-04-13T00:17:09.871Z,16.60
2018-04-13T00:19:43.284Z,16.60
2018-04-13T00:22:15.917Z,16.60
2018-04-13T00:24:48.537Z,16.60
2018-04-13T00:27:21.960Z,16.50
2018-04-13T00:29:55.336Z,16.50
2018-04-13T00:32:27.981Z,16.50
2018-04-13T00:35:00.586Z,16.50
2018-04-13T00:37:33.238Z,16.50
2018-04-13T00:40:05.855Z,16.50
2018-04-13T00:42:38.495Z,16.50
2018-04-13T00:45:11.103Z,16.50
2018-04-13T00:47:43.752Z,16.50
2018-04-13T00:50:16.355Z,16.50
2018-04-13T00:53:00.848Z,16.50
2018-04-13T00:55:33.453Z,16.40
2018-04-13T00:58:06.104Z,16.40
2018-04-13T01:00:38.708Z,16.40
2018-04-13T01:03:11.334Z,16.40
2018-04-13T01:05:43.940Z,16.40
2018-04-13T01:08:17.348Z,16.40
2018-04-13T01:10:50.725Z,16.40
2018-04-13T01:13:23.428Z,16.40
2018-04-13T01:15:56.203Z,16.40
2018-04-13T01:21:38.874Z,16.40
2018-04-13T01:24:12.387Z,16.30
2018-04-13T01:26:44.996Z,16.30
2018-04-13T01:29:17.632Z,16.30
2018-04-13T01:31:50.245Z,16.30
2018-04-13T01:34:22.881Z,16.30
2018-04-13T01:36:56.256Z,16.30
2018-04-13T01:39:28.885Z,16.20
2018-04-13T01:42:02.269Z,16.30
2018-04-13T01:44:34.896Z,16.20
2018-04-13T01:47:08.280Z,16.20
2018-04-13T01:49:40.923Z,16.20
2018-04-13T01:52:13.531Z,16.20
2018-04-13T01:54:46.180Z,16.20
2018-04-13T01:57:19.551Z,16.20
2018-04-13T01:59:52.175Z,16.20
2018-04-13T02:02:25.551Z,16.20
2018-04-13T02:04:58.205Z,16.20
2018-04-13T02:07:30.816Z,16.20
2018-04-13T02:10:03.473Z,16.20
2018-04-13T02:12:36.232Z,16.20
2018-04-13T02:15:09.749Z,16.20
2018-04-13T02:17:43.187Z,16.20
2018-04-13T02:20:15.830Z,16.20
2018-04-13T02:22:48.435Z,16.20
2018-04-13T02:25:21.079Z,16.20
2018-04-13T02:27:53.679Z,16.20
2018-04-13T02:30:26.308Z,16.20
2018-04-13T02:32:58.929Z,16.20
2018-04-13T02:35:32.320Z,16.20
2018-04-13T02:38:04.925Z,16.10
2018-04-13T02:40:38.339Z,16.20
2018-04-13T02:43:11.708Z,16.10
2018-04-13T02:45:44.354Z,16.20
2018-04-13T02:48:16.960Z,16.10
2018-04-13T02:50:49.588Z,16.10
2018-04-13T02:53:22.188Z,16.10
2018-04-13T02:55:54.832Z,16.10
2018-04-13T02:58:27.436Z,16.10
2018-04-13T03:01:00.082Z,16.10
2018-04-13T03:03:33.450Z,16.10
2018-04-13T03:06:06.103Z,16.10
2018-04-13T03:08:38.705Z,16.10
2018-04-13T03:11:11.351Z,16.10
2018-04-13T03:13:43.956Z,16.10
2018-04-13T03:16:17.368Z,16.10
2018-04-13T03:18:50.756Z,16.10
2018-04-13T03:21:23.384Z,16.10
2018-04-13T03:23:55.992Z,16.10
2018-04-13T03:26:28.643Z,16.10
2018-04-13T03:29:01.249Z,16.10
2018-04-13T03:31:34.662Z,16.10
2018-04-13T03:34:08.028Z,16.10
2018-04-13T03:36:40.652Z,16.10
2018-04-13T03:39:14.021Z,16.10
2018-04-13T03:41:46.648Z,16.10
2018-04-13T03:44:19.255Z,16.10
2018-04-13T03:46:52.647Z,16.00
2018-04-13T03:49:25.272Z,16.00
2018-04-13T03:51:57.892Z,16.00
2018-04-13T03:54:30.518Z,16.00
2018-04-13T03:57:03.919Z,16.00
2018-04-13T03:59:36.523Z,16.00
2018-04-13T04:02:09.188Z,16.00
2018-04-13T04:04:41.763Z,16.00
2018-04-13T04:07:14.391Z,16.00
2018-04-13T04:09:46.997Z,16.00
2018-04-13T04:12:19.620Z,16.00
2018-04-13T04:14:52.218Z,16.00
2018-04-13T04:17:24.846Z,15.90
2018-04-13T04:20:09.457Z,15.90
2018-04-13T04:22:53.919Z,15.90
2018-04-13T04:25:39.190Z,15.90
2018-04-13T04:28:11.820Z,15.90
2018-04-13T04:30:44.439Z,15.90
2018-04-13T04:33:17.087Z,15.90
2018-04-13T04:35:50.742Z,15.90
2018-04-13T04:38:45.920Z,15.90
2018-04-13T04:41:19.300Z,15.90
2018-04-13T04:43:51.925Z,15.90
2018-04-13T04:46:25.296Z,15.80
2018-04-13T04:48:57.949Z,15.80
2018-04-13T04:51:31.323Z,15.90
2018-04-13T04:54:04.735Z,15.90
2018-04-13T04:56:38.104Z,15.90
2018-04-13T04:59:10.747Z,15.90
2018-04-13T05:01:43.383Z,15.90
2018-04-13T05:04:18.226Z,15.90
2018-04-13T05:06:50.828Z,15.90
2018-04-13T05:09:23.549Z,15.80
2018-04-13T05:11:56.177Z,15.80
2018-04-13T05:14:28.805Z,15.80
2018-04-13T05:17:01.430Z,15.80
2018-04-13T05:19:35.515Z,15.80
2018-04-13T05:22:08.961Z,15.80
2018-04-13T05:24:42.813Z,15.80
2018-04-13T05:27:15.445Z,15.70
2018-04-13T05:29:48.108Z,15.80
2018-04-13T05:32:20.898Z,15.70
2018-04-13T05:34:56.624Z,15.70
2018-04-13T05:37:30.152Z,15.70
2018-04-13T05:40:03.552Z,15.70
2018-04-13T05:42:36.920Z,15.70
2018-04-13T05:45:09.561Z,15.70
2018-04-13T05:47:42.179Z,15.70
2018-04-13T05:50:14.872Z,15.70
2018-04-13T05:52:47.491Z,15.70
2018-04-13T05:55:20.144Z,15.70
2018-04-13T05:57:52.748Z,15.70
2018-04-13T06:00:25.424Z,15.70
2018-04-13T06:02:58.027Z,15.70
2018-04-13T06:05:30.673Z,15.80
2018-04-13T06:08:03.288Z,15.80
2018-04-13T06:10:36.700Z,15.90
2018-04-13T06:13:10.075Z,15.90
2018-04-13T06:15:42.751Z,15.90
2018-04-13T06:18:15.372Z,16.00
2018-04-13T06:20:48.020Z,16.00
2018-04-13T06:23:20.632Z,16.00
2018-04-13T06:25:53.259Z,16.00
2018-04-13T06:28:26.640Z,16.10
2018-04-13T06:30:59.292Z,16.10
2018-04-13T06:33:31.899Z,16.10
2018-04-13T06:36:04.528Z,16.10
2018-04-13T06:38:37.132Z,16.10
2018-04-13T06:41:10.548Z,16.00
2018-04-13T06:43:43.993Z,16.00
2018-04-13T06:46:17.371Z,16.00
2018-04-13T06:48:50.834Z,16.00
2018-04-13T06:51:24.173Z,16.00
2018-04-13T06:53:56.776Z,16.00
2018-04-13T06:56:30.200Z,16.00
2018-04-13T06:59:02.818Z,16.00
2018-04-13T07:01:35.453Z,16.00
2018-04-13T07:04:08.060Z,16.00
2018-04-13T07:06:41.477Z,16.10
2018-04-13T07:09:14.100Z,16.00
2018-04-13T07:11:46.752Z,16.10
2018-04-13T07:14:20.140Z,16.10
2018-04-13T07:16:52.835Z,16.00
2018-04-13T07:19:25.448Z,16.10
2018-04-13T07:21:58.863Z,16.10
2018-04-13T07:24:32.245Z,16.20
2018-04-13T07:27:04.895Z,16.20
2018-04-13T07:29:37.505Z,16.30
2018-04-13T07:32:10.162Z,16.30
2018-04-13T07:34:42.780Z,16.40
2018-04-13T07:37:15.785Z,16.40
2018-04-13T07:39:48.803Z,16.50
2018-04-13T07:42:21.444Z,16.50
2018-04-13T07:44:54.121Z,16.40
2018-04-13T07:47:26.727Z,16.40
2018-04-13T07:49:59.570Z,16.40
2018-04-13T07:52:32.023Z,16.40
2018-04-13T07:55:04.638Z,16.40
2018-04-13T07:57:37.291Z,16.40
2018-04-13T08:00:09.908Z,16.40
2018-04-13T08:02:42.562Z,16.40
2018-04-13T08:05:15.204Z,16.30
2018-04-13T08:07:47.831Z,16.20
2018-04-13T08:10:20.440Z,16.20
2018-04-13T08:12:53.859Z,16.20
2018-04-13T08:15:26.801Z,16.20
2018-04-13T08:17:59.206Z,16.20
2018-04-13T08:20:31.779Z,16.20
2018-04-13T08:23:04.427Z,16.20
2018-04-13T08:25:37.065Z,16.30
2018-04-13T08:28:09.729Z,16.30
2018-04-13T08:30:42.380Z,16.30
2018-04-13T08:33:15.036Z,16.40
2018-04-13T08:35:47.655Z,16.40
2018-04-13T08:38:20.335Z,16.40
2018-04-13T08:40:52.931Z,16.50
2018-04-13T08:43:25.576Z,16.50
2018-04-13T08:45:58.189Z,16.60
2018-04-13T08:48:45.169Z,16.60
2018-04-13T08:51:17.666Z,16.60
2018-04-13T08:53:50.318Z,16.60
2018-04-13T08:56:22.940Z,16.60
2018-04-13T08:58:56.360Z,16.60
2018-04-13T09:01:29.739Z,16.70
2018-04-13T09:04:02.398Z,16.70
2018-04-13T09:06:35.034Z,16.70
2018-04-13T09:09:08.456Z,16.90
2018-04-13T09:11:41.841Z,16.90
2018-04-13T09:14:14.491Z,16.90
2018-04-13T09:16:47.117Z,17.00
2018-04-13T09:19:19.757Z,17.00
2018-04-13T09:21:52.366Z,17.10
2018-04-13T09:24:25.024Z,17.10
2018-04-13T09:26:58.408Z,17.20
2018-04-13T09:29:31.055Z,17.20
2018-04-13T09:32:03.676Z,17.30
2018-04-13T09:34:36.329Z,17.30
2018-04-13T09:37:08.939Z,17.30
2018-04-13T09:39:41.569Z,17.40
2018-04-13T09:42:14.203Z,17.40
2018-04-13T09:44:46.864Z,17.50
2018-04-13T09:47:19.476Z,17.60
2018-04-13T09:49:52.133Z,17.60
2018-04-13T09:52:24.745Z,17.70
2018-04-13T09:54:58.176Z,17.80
2018-04-13T09:57:30.805Z,17.70
2018-04-13T10:00:03.452Z,17.80
2018-04-13T10:02:38.021Z,17.90
2018-04-13T10:05:16.624Z,17.90
2018-04-13T10:07:49.234Z,18.00
2018-04-13T10:10:21.877Z,18.00
2018-04-13T10:12:54.492Z,18.10
2018-04-13T10:15:27.115Z,18.10
2018-04-13T10:17:59.724Z,18.10
2018-04-13T10:20:32.377Z,18.20
2018-04-13T10:23:05.008Z,18.20
2018-04-13T10:25:37.643Z,18.30
2018-04-13T10:28:11.012Z,18.40
2018-04-13T10:30:43.665Z,18.40
2018-04-13T10:33:16.271Z,18.40
2018-04-13T10:35:48.923Z,18.50
2018-04-13T10:38:22.298Z,18.50
2018-04-13T10:40:54.946Z,18.50
2018-04-13T10:43:27.553Z,18.50
2018-04-13T10:46:00.213Z,18.60
2018-04-13T10:48:33.595Z,18.60
2018-04-13T10:51:06.233Z,18.50
2018-04-13T10:53:38.839Z,18.60
2018-04-13T10:56:11.511Z,18.60
2018-04-13T10:58:44.130Z,18.70
2018-04-13T11:01:16.802Z,18.70
2018-04-13T11:03:49.413Z,18.70
2018-04-13T11:06:22.060Z,18.70
2018-04-13T11:08:55.437Z,18.60
2018-04-13T11:11:28.091Z,18.60
2018-04-13T11:14:00.736Z,18.60
2018-04-13T11:16:33.388Z,18.60
2018-04-13T11:19:06.000Z,18.60
2018-04-13T11:21:38.637Z,18.60
2018-04-13T11:24:12.008Z,18.60
2018-04-13T11:26:44.712Z,18.60
2018-04-13T11:29:17.343Z,18.60
2018-04-13T11:31:50.012Z,18.70
2018-04-13T11:34:23.384Z,18.60
2018-04-13T11:36:56.031Z,18.60
2018-04-13T11:39:28.636Z,18.60
2018-04-13T11:42:01.264Z,18.60
2018-04-13T11:44:33.872Z,18.50
2018-04-13T11:47:06.529Z,18.40
2018-04-13T11:49:39.132Z,18.40
2018-04-13T11:52:11.762Z,18.40
2018-04-13T11:54:45.153Z,18.50
2018-04-13T11:57:17.848Z,18.40
2018-04-13T11:59:51.251Z,18.50
2018-04-13T12:02:23.924Z,18.50
2018-04-13T12:04:56.511Z,18.40
2018-04-13T12:07:29.148Z,18.30
2018-04-13T12:10:02.523Z,18.20
2018-04-13T12:12:35.172Z,18.20
2018-04-13T12:15:07.776Z,18.10
2018-04-13T12:17:40.424Z,18.00
2018-04-13T12:20:13.030Z,17.90
2018-04-13T12:22:46.494Z,17.80
2018-04-13T12:25:19.121Z,17.80
2018-04-13T12:27:51.764Z,17.80
2018-04-13T12:30:24.372Z,17.80
2018-04-13T12:32:57.003Z,17.70
2018-04-13T12:35:30.377Z,17.80
2018-04-13T12:38:03.039Z,17.80
2018-04-13T12:40:35.647Z,17.90
2018-04-13T12:43:08.302Z,17.90
2018-04-13T12:45:40.920Z,17.90
2018-04-13T12:48:13.597Z,18.00
2018-04-13T12:50:46.226Z,18.00
2018-04-13T12:53:18.953Z,18.00
2018-04-13T12:55:51.540Z,18.10
2018-04-13T12:58:24.196Z,18.20
2018-04-13T13:00:56.825Z,18.20
2018-04-13T13:03:29.541Z,18.30
2018-04-13T13:06:02.171Z,18.40
2018-04-13T13:08:35.063Z,18.40
2018-04-13T13:11:07.725Z,18.50
2018-04-13T13:13:40.365Z,18.60
2018-04-13T13:16:12.999Z,18.60
2018-04-13T13:18:46.426Z,18.70
2018-04-13T13:21:19.044Z,18.70
2018-04-13T13:23:51.688Z,18.70
2018-04-13T13:26:24.323Z,18.80
2018-04-13T13:28:56.972Z,18.90
2018-04-13T13:31:30.349Z,19.10
2018-04-13T13:34:03.043Z,19.10
2018-04-13T13:36:35.681Z,19.20
2018-04-13T13:39:08.871Z,19.40
2018-04-13T13:41:42.272Z,19.50
2018-04-13T13:44:14.931Z,19.50
2018-04-13T13:46:47.552Z,19.50
2018-04-13T13:49:20.196Z,19.60
2018-04-13T13:51:52.831Z,19.60
2018-04-13T13:54:25.508Z,19.70
2018-04-13T13:56:58.108Z,19.60
2018-04-13T13:59:30.740Z,19.70
2018-04-13T14:02:04.116Z,19.70
2018-04-13T14:04:36.757Z,19.70
2018-04-13T14:07:09.366Z,19.70
2018-04-13T14:09:41.988Z,19.70
2018-04-13T14:12:14.588Z,19.70
2018-04-13T14:14:47.267Z,19.70
2018-04-13T14:17:19.876Z,19.70
2018-04-13T14:19:52.505Z,19.70
2018-04-13T14:22:25.107Z,19.70
2018-04-13T14:24:57.754Z,19.70
2018-04-13T14:27:30.368Z,19.70
2018-04-13T14:30:03.006Z,19.70
2018-04-13T14:32:35.615Z,19.80
2018-04-13T14:35:08.257Z,19.80
2018-04-13T14:37:40.857Z,19.80
2018-04-13T14:40:13.487Z,19.80
2018-04-13T14:42:46.096Z,19.90
2018-04-13T14:45:18.736Z,19.80
2018-04-13T14:47:58.412Z,19.90
2018-04-13T14:50:31.040Z,19.90
2018-04-13T14:53:04.452Z,20.00
2018-04-13T14:55:37.863Z,20.00
2018-04-13T14:58:11.233Z,20.00
2018-04-13T15:00:43.947Z,20.00
2018-04-13T15:03:17.352Z,20.10
2018-04-13T15:05:49.976Z,20.00
2018-04-13T15:08:23.387Z,20.10
2018-04-13T15:10:56.044Z,20.10
2018-04-13T15:13:29.641Z,20.10
2018-04-13T15:16:02.339Z,20.20
2018-04-13T15:18:37.964Z,20.20
2018-04-13T15:21:11.475Z,20.20
2018-04-13T15:23:44.083Z,20.20
2018-04-13T15:26:16.732Z,20.20
2018-04-13T15:28:50.130Z,20.20
2018-04-13T15:31:22.779Z,20.20
2018-04-13T15:33:55.383Z,20.10
2018-04-13T15:36:28.008Z,20.20
2018-04-13T15:39:00.628Z,20.20
2018-04-13T15:41:33.260Z,20.20
2018-04-13T15:44:05.888Z,20.20
2018-04-13T15:46:39.304Z,20.20
2018-04-13T15:49:12.671Z,20.20
2018-04-13T15:51:45.328Z,20.20
2018-04-13T15:54:17.954Z,20.30
2018-04-13T15:56:50.598Z,20.30
2018-04-13T15:59:24.292Z,20.30
2018-04-13T16:01:56.917Z,20.30
2018-04-13T16:04:29.525Z,20.30
2018-04-13T16:07:02.964Z,20.30
2018-04-13T16:09:35.575Z,20.40
2018-04-13T16:12:08.274Z,20.30
2018-04-13T16:14:40.873Z,20.30
2018-04-13T16:17:14.280Z,20.30
2018-04-13T16:19:47.676Z,20.40
2018-04-13T16:22:20.302Z,20.40
2018-04-13T16:24:52.919Z,20.40
2018-04-13T16:27:25.546Z,20.40
2018-04-13T16:29:58.148Z,20.40
2018-04-13T16:32:30.784Z,20.40
2018-04-13T16:35:03.400Z,20.30
2018-04-13T16:37:36.048Z,20.30
2018-04-13T16:40:08.652Z,20.30
2018-04-13T16:42:41.311Z,20.30
2018-04-13T16:45:14.697Z,20.30
2018-04-13T16:47:47.370Z,20.30
2018-04-13T16:50:32.829Z,20.30
2018-04-13T16:53:05.494Z,20.30
2018-04-13T16:55:38.879Z,20.20
2018-04-13T16:58:11.512Z,20.20
2018-04-13T17:00:44.897Z,20.10
2018-04-13T17:03:17.555Z,20.10
2018-04-13T17:05:50.232Z,20.10
2018-04-13T17:08:22.921Z,20.00
2018-04-13T17:10:57.571Z,20.00
2018-04-13T17:13:32.107Z,19.90
2018-04-13T17:16:04.736Z,19.90
2018-04-13T17:18:37.412Z,19.90
2018-04-13T17:21:10.647Z,19.90
2018-04-13T17:23:43.400Z,19.80
2018-04-13T17:26:16.041Z,19.80
2018-04-13T17:28:49.465Z,19.70
2018-04-13T17:31:22.856Z,19.60
2018-04-13T17:33:55.479Z,19.60
2018-04-13T17:36:28.084Z,19.60
2018-04-13T17:39:00.748Z,19.50
2018-04-13T17:41:34.119Z,19.40
2018-04-13T17:44:06.749Z,19.40
2018-04-13T17:46:40.123Z,19.40
2018-04-13T17:49:12.790Z,19.30
2018-04-13T17:51:45.431Z,19.30
2018-04-13T17:54:18.073Z,19.20
2018-04-13T17:56:50.683Z,19.20
2018-04-13T17:59:23.312Z,19.20
2018-04-13T18:01:55.920Z,19.10
2018-04-13T18:04:28.656Z,19.10
2018-04-13T18:07:01.308Z,19.00
2018-04-13T18:09:34.006Z,18.90
2018-04-13T18:12:06.734Z,18.90
2018-04-13T18:14:39.389Z,18.80
2018-04-13T18:17:12.003Z,18.80
2018-04-13T18:19:44.677Z,18.70
2018-04-13T18:22:17.293Z,18.70
2018-04-13T18:24:50.072Z,18.70
2018-04-13T18:27:22.671Z,18.60
2018-04-13T18:29:55.348Z,18.60
2018-04-13T18:32:27.957Z,18.60
2018-04-13T18:35:00.653Z,18.50
2018-04-13T18:37:33.545Z,18.50
2018-04-13T18:43:04.036Z,18.40
2018-04-13T18:45:36.759Z,18.40
2018-04-13T18:48:09.371Z,18.40
2018-04-13T18:50:42.791Z,18.30
2018-04-13T18:53:16.160Z,18.20
2018-04-13T18:55:48.792Z,18.20
2018-04-13T18:58:22.179Z,17.90
2018-04-13T19:00:55.657Z,17.90
2018-04-13T19:03:28.321Z,17.80
2018-04-13T19:06:01.715Z,17.40
2018-04-13T19:08:34.328Z,17.40
2018-04-13T19:11:06.952Z,17.20
2018-04-13T19:13:39.596Z,17.10
2018-04-13T19:16:12.230Z,16.80
2018-04-13T19:18:44.840Z,16.70
2018-04-13T19:21:17.480Z,16.50
2018-04-13T19:23:50.086Z,16.40
2018-04-13T19:26:22.789Z,16.30
2018-04-13T19:28:55.400Z,16.30
2018-04-13T19:31:28.052Z,16.30
2018-04-13T19:34:00.656Z,16.20
2018-04-13T19:36:33.271Z,16.10
2018-04-13T19:39:05.871Z,16.20
2018-04-13T19:41:38.497Z,16.10
2018-04-13T19:44:12.004Z,16.10
2018-04-13T19:46:45.432Z,16.10
2018-04-13T19:49:18.037Z,16.10
2018-04-13T19:51:50.663Z,16.00
2018-04-13T19:54:26.871Z,16.00
2018-04-13T19:56:59.668Z,16.00
2018-04-13T19:59:33.069Z,16.00
2018-04-13T20:02:06.465Z,16.00
2018-04-13T20:04:39.081Z,16.00
2018-04-13T20:07:11.818Z,16.00
2018-04-13T20:09:44.485Z,15.90
2018-04-13T20:12:19.993Z,15.80
2018-04-13T20:14:52.591Z,15.80
2018-04-13T20:17:46.452Z,15.80
2018-04-13T20:20:19.056Z,15.80
2018-04-13T20:22:51.692Z,15.80
2018-04-13T20:25:25.059Z,15.80
2018-04-13T20:27:57.683Z,15.80
2018-04-13T20:30:31.089Z,15.90
2018-04-13T20:33:03.971Z,15.80
2018-04-13T20:35:48.264Z,15.90
2018-04-13T20:38:21.651Z,15.80
2018-04-13T20:40:54.244Z,15.80
2018-04-13T20:43:26.888Z,15.90
2018-04-13T20:45:59.503Z,15.80
2018-04-13T20:48:32.146Z,15.80
2018-04-13T20:51:05.516Z,15.70
2018-04-13T20:53:38.165Z,15.70
2018-04-13T20:56:10.773Z,15.60
2018-04-13T20:58:43.391Z,15.60
2018-04-13T21:01:16.016Z,15.60
2018-04-13T21:03:49.407Z,15.50
2018-04-13T21:06:22.007Z,15.50
2018-04-13T21:08:55.392Z,15.40
2018-04-13T21:11:28.007Z,15.40
2018-04-13T21:14:01.437Z,15.30
2018-04-13T21:16:34.039Z,15.30
2018-04-13T21:19:06.680Z,15.30
2018-04-13T21:21:39.295Z,15.10
2018-04-13T21:24:12.703Z,15.00
2018-04-13T21:26:45.304Z,15.00
2018-04-13T21:29:18.706Z,15.00
2018-04-13T21:31:52.091Z,15.00
2018-04-13T21:34:24.717Z,14.90
2018-04-13T21:36:58.096Z,14.90
2018-04-13T21:39:30.751Z,14.90
2018-04-13T21:42:03.358Z,14.90
2018-04-13T21:44:36.004Z,14.80
2018-04-13T21:47:08.603Z,14.80
2018-04-13T21:49:41.228Z,14.70
2018-04-13T21:52:13.840Z,14.70
2018-04-13T21:54:46.500Z,14.70
2018-04-13T21:57:19.112Z,14.60
2018-04-13T21:59:51.756Z,14.50
2018-04-13T22:02:24.363Z,14.40
2018-04-13T22:04:56.983Z,14.30
2018-04-13T22:07:29.590Z,14.20
2018-04-13T22:10:02.225Z,14.20
2018-04-13T22:12:46.797Z,14.20
2018-04-13T22:15:26.267Z,14.20
2018-04-13T22:17:58.872Z,14.20
2018-04-13T22:20:31.491Z,14.20
2018-04-13T22:23:04.096Z,14.20
2018-04-13T22:25:36.741Z,14.20
2018-04-13T22:28:09.353Z,14.20
2018-04-13T22:30:41.995Z,14.20
2018-04-13T22:33:14.616Z,14.10
2018-04-13T22:35:47.263Z,14.10
2018-04-13T22:38:20.635Z,14.10
2018-04-13T22:40:53.259Z,14.10
2018-04-13T22:43:26.627Z,14.10
2018-04-13T22:45:59.274Z,14.10
2018-04-13T22:48:32.644Z,14.10
2018-04-13T22:51:05.288Z,14.10
2018-04-13T22:53:37.893Z,14.10
2018-04-13T22:56:10.515Z,14.10
2018-04-13T22:58:43.117Z,14.10
2018-04-13T23:01:15.768Z,14.00
2018-04-13T23:03:48.372Z,14.00
2018-04-13T23:06:21.020Z,14.00
2018-04-13T23:08:54.400Z,13.90
2018-04-13T23:11:27.037Z,13.90
2018-04-13T23:13:59.647Z,13.90
2018-04-13T23:16:32.295Z,13.80
2018-04-13T23:19:05.713Z,13.80
2018-04-13T23:21:38.330Z,13.80
2018-04-13T23:24:10.967Z,13.70
2018-04-13T23:26:43.613Z,13.70
2018-04-13T23:29:16.211Z,13.60
2018-04-13T23:31:48.832Z,13.60
2018-04-13T23:34:21.436Z,13.60
2018-04-13T23:36:54.057Z,13.60
2018-04-13T23:39:27.587Z,13.50
2018-04-13T23:42:00.332Z,13.50
2018-04-13T23:44:32.937Z,13.50
2018-04-13T23:47:06.351Z,13.50
2018-04-13T23:49:39.719Z,13.40
2018-04-13T23:52:12.353Z,13.40
2018-04-13T23:54:45.731Z,13.40
2018-04-13T23:57:18.363Z,13.40
2018-04-13T23:59:51.753Z,13.30
